createdAt,value
2023-06-04T00:02:24.693Z,13.85
2023-06-04T00:05:28.170Z,13.79
2023-06-04T00:08:30.892Z,13.76
2023-06-04T00:11:35.088Z,13.74
2023-06-04T00:14:37.770Z,13.64
2023-06-04T00:17:41.819Z,13.59
2023-06-04T00:20:44.367Z,13.53
2023-06-04T00:23:47.426Z,13.51
2023-06-04T00:26:50.018Z,13.41
2023-06-04T00:29:52.941Z,13.42
2023-06-04T00:32:55.628Z,13.48
2023-06-04T00:35:58.700Z,13.45
2023-06-04T00:39:01.417Z,13.29
2023-06-04T00:42:04.268Z,13.31
2023-06-04T00:45:10.974Z,13.34
2023-06-04T00:48:13.829Z,13.26
2023-06-04T00:51:16.407Z,13.25
2023-06-04T00:54:21.316Z,13.20
2023-06-04T00:57:24.038Z,13.06
2023-06-04T01:00:27.581Z,13.15
2023-06-04T01:03:33.228Z,13.08
2023-06-04T01:06:41.220Z,13.13
2023-06-04T01:09:45.881Z,13.06
2023-06-04T01:12:48.831Z,12.98
2023-06-04T01:15:51.470Z,13.00
2023-06-04T01:18:56.377Z,12.99
2023-06-04T01:22:04.830Z,13.17
2023-06-04T01:25:20.668Z,13.24
2023-06-04T01:28:23.553Z,13.18
2023-06-04T01:31:27.182Z,13.21
2023-06-04T01:34:29.751Z,13.08
2023-06-04T01:37:32.945Z,12.93
2023-06-04T01:40:36.467Z,12.87
2023-06-04T01:43:39.489Z,12.76
2023-06-04T01:46:42.097Z,12.86
2023-06-04T01:49:45.144Z,12.85
2023-06-04T01:52:48.100Z,12.80
2023-06-04T01:55:51.242Z,12.82
2023-06-04T01:58:54.364Z,12.98
2023-06-04T02:01:57.339Z,13.06
2023-06-04T02:05:00.254Z,13.12
2023-06-04T02:08:03.076Z,13.19
2023-06-04T02:11:06.439Z,13.13
2023-06-04T02:14:09.310Z,13.09
2023-06-04T02:17:17.463Z,12.97
2023-06-04T02:20:20.139Z,12.98
2023-06-04T02:23:23.044Z,13.01
2023-06-04T02:26:26.207Z,13.03
2023-06-04T02:29:29.374Z,13.12
2023-06-04T02:32:32.063Z,13.11
2023-06-04T02:35:35.151Z,13.08
2023-06-04T02:38:37.778Z,13.04
2023-06-04T02:41:40.741Z,13.00
2023-06-04T02:44:44.705Z,12.92
2023-06-04T02:47:47.959Z,12.85
2023-06-04T02:50:50.701Z,12.73
2023-06-04T02:53:53.954Z,12.71
2023-06-04T02:56:56.964Z,12.71
2023-06-04T03:00:12.301Z,12.76
2023-06-04T03:03:15.024Z,12.83
2023-06-04T03:06:21.338Z,12.91
2023-06-04T03:09:23.999Z,12.96
2023-06-04T03:12:27.094Z,13.00
2023-06-04T03:15:29.657Z,13.06
2023-06-04T03:18:33.967Z,13.03
2023-06-04T03:21:36.768Z,12.99
2023-06-04T03:24:41.095Z,12.96
2023-06-04T03:27:43.681Z,12.98
2023-06-04T03:30:46.770Z,12.89
2023-06-04T03:33:49.474Z,12.86
2023-06-04T03:36:53.438Z,12.92
2023-06-04T03:39:56.157Z,12.93
2023-06-04T03:42:59.417Z,13.05
2023-06-04T03:46:02.963Z,13.11
2023-06-04T03:49:06.071Z,13.22
2023-06-04T03:52:09.014Z,13.27
2023-06-04T03:55:12.540Z,13.35
2023-06-04T03:58:16.016Z,13.46
2023-06-04T04:01:19.664Z,13.50
2023-06-04T04:04:22.832Z,13.61
2023-06-04T04:07:25.697Z,13.71
2023-06-04T04:10:28.742Z,13.85
2023-06-04T04:13:31.429Z,13.98
2023-06-04T04:16:34.943Z,14.02
2023-06-04T04:19:37.974Z,14.06
2023-06-04T04:22:42.786Z,14.03
2023-06-04T04:25:45.813Z,14.08
2023-06-04T04:28:49.035Z,14.05
2023-06-04T04:31:57.422Z,14.06
2023-06-04T04:35:01.572Z,14.08
2023-06-04T04:38:05.363Z,14.08
2023-06-04T04:41:09.853Z,14.08
2023-06-04T04:44:13.372Z,14.11
2023-06-04T04:47:17.132Z,14.16
2023-06-04T04:50:19.962Z,14.06
2023-06-04T04:53:23.181Z,14.03
2023-06-04T04:56:27.501Z,14.20
2023-06-04T04:59:30.607Z,14.12
2023-06-04T05:02:35.767Z,14.17
2023-06-04T05:05:39.159Z,14.15
2023-06-04T05:08:43.309Z,14.17
2023-06-04T05:11:47.029Z,14.18
2023-06-04T05:14:49.900Z,14.23
2023-06-04T05:17:53.934Z,14.22
2023-06-04T05:20:57.012Z,14.15
2023-06-04T05:24:00.232Z,14.35
2023-06-04T05:27:04.753Z,14.55
2023-06-04T05:30:08.454Z,14.62
2023-06-04T05:33:18.857Z,14.87
2023-06-04T05:36:22.323Z,15.10
2023-06-04T05:39:25.294Z,15.44
2023-06-04T05:42:28.774Z,15.56
2023-06-04T05:45:31.422Z,15.61
2023-06-04T05:48:34.267Z,15.66
2023-06-04T05:51:37.430Z,15.70
2023-06-04T05:54:40.443Z,15.70
2023-06-04T05:57:43.514Z,15.71
2023-06-04T06:00:46.689Z,15.73
2023-06-04T06:03:49.862Z,15.89
2023-06-04T06:06:54.616Z,16.05
2023-06-04T06:09:57.537Z,16.09
2023-06-04T06:13:01.781Z,16.27
2023-06-04T06:16:05.845Z,16.34
2023-06-04T06:19:08.764Z,16.66
2023-06-04T06:22:11.804Z,16.80
2023-06-04T06:25:14.742Z,17.01
2023-06-04T06:28:18.742Z,17.17
2023-06-04T06:31:22.017Z,17.36
2023-06-04T06:34:25.060Z,17.42
2023-06-04T06:37:27.599Z,17.50
2023-06-04T06:40:31.641Z,17.52
2023-06-04T06:43:34.495Z,17.56
2023-06-04T06:46:37.526Z,17.72
2023-06-04T06:49:43.897Z,17.76
2023-06-04T06:52:46.749Z,17.89
2023-06-04T06:55:49.252Z,18.00
2023-06-04T06:58:52.571Z,17.98
2023-06-04T07:01:55.325Z,18.30
2023-06-04T07:04:58.243Z,18.45
2023-06-04T07:08:02.095Z,18.70
2023-06-04T07:11:05.298Z,18.87
2023-06-04T07:14:07.948Z,19.02
2023-06-04T07:17:10.747Z,19.31
2023-06-04T07:20:13.227Z,19.63
2023-06-04T07:23:16.198Z,19.70
2023-06-04T07:26:19.239Z,19.77
2023-06-04T07:29:22.078Z,19.82
2023-06-04T07:32:24.601Z,19.98
2023-06-04T07:35:27.463Z,20.10
2023-06-04T07:38:30.001Z,20.11
2023-06-04T07:41:32.825Z,19.99
2023-06-04T07:44:37.545Z,19.94
2023-06-04T07:47:40.509Z,20.04
2023-06-04T07:50:43.285Z,20.01
2023-06-04T07:53:46.204Z,19.88
2023-06-04T07:56:48.650Z,20.01
2023-06-04T07:59:52.535Z,20.08
2023-06-04T08:02:55.082Z,20.11
2023-06-04T08:05:57.947Z,20.50
2023-06-04T08:09:00.651Z,20.99
2023-06-04T08:12:03.701Z,21.30
2023-06-04T08:15:07.005Z,21.52
2023-06-04T08:18:09.930Z,21.98
2023-06-04T08:21:13.023Z,22.01
2023-06-04T08:24:16.332Z,22.53
2023-06-04T08:27:19.117Z,22.20
2023-06-04T08:30:22.397Z,22.13
2023-06-04T08:33:24.958Z,22.59
2023-06-04T08:36:28.924Z,22.48
2023-06-04T08:39:31.674Z,22.71
2023-06-04T08:42:39.861Z,22.61
2023-06-04T08:45:44.391Z,22.27
2023-06-04T08:48:47.549Z,22.36
2023-06-04T08:51:50.314Z,22.71
2023-06-04T08:54:56.118Z,23.14
2023-06-04T08:57:59.027Z,23.80
2023-06-04T09:01:02.504Z,24.12
2023-06-04T09:04:08.778Z,24.39
2023-06-04T09:07:14.936Z,24.32
2023-06-04T09:10:19.785Z,24.77
2023-06-04T09:13:23.710Z,24.76
2023-06-04T09:16:26.447Z,25.01
2023-06-04T09:19:29.628Z,24.93
2023-06-04T09:22:36.873Z,25.07
2023-06-04T09:25:44.096Z,25.22
2023-06-04T09:28:47.270Z,24.84
2023-06-04T09:31:59.676Z,24.83
2023-06-04T09:35:12.717Z,24.35
2023-06-04T09:38:15.805Z,24.09
2023-06-04T09:41:24.757Z,24.02
2023-06-04T09:44:32.509Z,24.17
2023-06-04T09:47:44.389Z,24.19
2023-06-04T09:50:47.936Z,23.62
2023-06-04T09:53:58.293Z,23.76
2023-06-04T09:57:02.001Z,23.62
2023-06-04T10:00:09.696Z,23.42
2023-06-04T10:03:16.703Z,23.46
2023-06-04T10:06:23.051Z,23.18
2023-06-04T10:09:27.103Z,23.25
2023-06-04T10:12:32.814Z,23.13
2023-06-04T10:15:36.849Z,23.21
2023-06-04T10:18:40.435Z,23.19
2023-06-04T10:21:43.784Z,23.08
2023-06-04T10:24:47.624Z,23.07
2023-06-04T10:27:51.836Z,23.02
2023-06-04T10:30:54.871Z,22.98
2023-06-04T10:33:57.995Z,23.06
2023-06-04T10:37:00.873Z,23.08
2023-06-04T10:40:06.056Z,23.06
2023-06-04T10:43:13.288Z,23.05
2023-06-04T10:46:17.217Z,23.03
2023-06-04T10:49:30.162Z,23.09
2023-06-04T10:52:32.775Z,23.17
2023-06-04T10:55:45.475Z,23.22
2023-06-04T10:58:47.894Z,23.24
2023-06-04T11:01:50.855Z,23.22
2023-06-04T11:05:06.918Z,23.19
2023-06-04T11:08:11.457Z,23.29
2023-06-04T11:11:15.485Z,23.31
2023-06-04T11:14:18.976Z,23.32
2023-06-04T11:17:21.567Z,23.37
2023-06-04T11:20:24.809Z,23.35
2023-06-04T11:23:27.458Z,23.36
2023-06-04T11:26:34.181Z,23.69
2023-06-04T11:29:37.539Z,24.10
2023-06-04T11:32:40.345Z,24.35
2023-06-04T11:35:44.228Z,24.16
2023-06-04T11:39:01.731Z,24.18
2023-06-04T11:42:08.390Z,24.33
2023-06-04T11:45:14.143Z,24.12
2023-06-04T11:48:17.040Z,24.09
2023-06-04T11:51:22.370Z,24.33
2023-06-04T11:54:25.127Z,24.69
2023-06-04T11:57:28.125Z,25.33
2023-06-04T12:00:31.366Z,25.17
2023-06-04T12:03:41.314Z,25.14
2023-06-04T12:07:01.368Z,24.98
2023-06-04T12:10:09.613Z,24.73
2023-06-04T12:13:12.660Z,24.89
2023-06-04T12:16:16.480Z,24.91
2023-06-04T12:19:19.065Z,25.21
2023-06-04T12:22:22.075Z,25.07
2023-06-04T12:25:27.149Z,24.60
2023-06-04T12:28:30.022Z,24.48
2023-06-04T12:31:33.429Z,24.33
2023-06-04T12:34:36.740Z,24.26
2023-06-04T12:37:39.313Z,24.08
2023-06-04T12:40:42.035Z,24.15
2023-06-04T12:43:44.590Z,24.22
2023-06-04T12:46:47.605Z,24.10
2023-06-04T12:49:50.169Z,24.12
2023-06-04T12:52:53.046Z,23.98
2023-06-04T12:55:55.720Z,23.83
2023-06-04T12:58:58.644Z,23.67
2023-06-04T13:02:01.288Z,23.51
2023-06-04T13:05:04.348Z,23.45
2023-06-04T13:08:06.883Z,23.18
2023-06-04T13:11:10.965Z,23.16
2023-06-04T13:14:13.582Z,23.16
2023-06-04T13:17:22.691Z,23.07
2023-06-04T13:20:25.929Z,23.06
2023-06-04T13:23:45.609Z,23.16
2023-06-04T13:26:51.904Z,22.92
2023-06-04T13:29:54.817Z,22.89
2023-06-04T13:32:59.295Z,22.85
2023-06-04T13:36:04.406Z,22.82
2023-06-04T13:39:07.050Z,22.78
2023-06-04T13:42:09.847Z,22.81
2023-06-04T13:45:12.433Z,22.73
2023-06-04T13:48:15.998Z,22.63
2023-06-04T13:51:18.685Z,22.67
2023-06-04T13:54:21.498Z,22.65
2023-06-04T13:57:25.851Z,22.69
2023-06-04T14:00:30.987Z,22.82
2023-06-04T14:03:34.056Z,22.94
2023-06-04T14:06:37.361Z,23.04
2023-06-04T14:09:41.091Z,22.87
2023-06-04T14:12:45.078Z,22.72
2023-06-04T14:15:48.007Z,22.83
2023-06-04T14:18:50.696Z,22.91
2023-06-04T14:21:53.494Z,22.88
2023-06-04T14:24:56.069Z,22.88
2023-06-04T14:27:58.903Z,22.82
2023-06-04T14:31:01.464Z,22.82
2023-06-04T14:34:04.835Z,22.82
2023-06-04T14:37:07.249Z,22.75
2023-06-04T14:40:10.683Z,22.79
2023-06-04T14:43:13.604Z,22.70
2023-06-04T14:46:17.775Z,22.73
2023-06-04T14:49:20.604Z,22.59
2023-06-04T14:52:23.445Z,22.52
2023-06-04T14:55:26.337Z,22.50
2023-06-04T14:58:29.244Z,22.34
2023-06-04T15:01:31.843Z,22.52
2023-06-04T15:04:34.692Z,22.55
2023-06-04T15:07:38.931Z,22.38
2023-06-04T15:10:41.867Z,22.35
2023-06-04T15:13:44.481Z,22.48
2023-06-04T15:16:47.357Z,22.43
2023-06-04T15:19:50.015Z,22.33
2023-06-04T15:22:53.113Z,22.20
2023-06-04T15:25:55.900Z,22.09
2023-06-04T15:28:58.826Z,22.03
2023-06-04T15:32:01.517Z,22.01
2023-06-04T15:35:05.323Z,21.91
2023-06-04T15:38:07.912Z,21.85
2023-06-04T15:41:11.108Z,21.77
2023-06-04T15:44:13.659Z,21.72
2023-06-04T15:47:16.499Z,21.59
2023-06-04T15:50:19.555Z,21.57
2023-06-04T15:53:23.955Z,21.54
2023-06-04T15:56:26.853Z,21.44
2023-06-04T15:59:29.758Z,21.40
2023-06-04T16:02:32.320Z,21.29
2023-06-04T16:05:35.268Z,21.21
2023-06-04T16:08:42.297Z,21.10
2023-06-04T16:11:45.266Z,21.03
2023-06-04T16:14:47.815Z,20.96
2023-06-04T16:17:50.687Z,20.93
2023-06-04T16:20:53.473Z,20.87
2023-06-04T16:23:56.475Z,20.84
2023-06-04T16:26:59.046Z,20.74
2023-06-04T16:30:02.023Z,20.72
2023-06-04T16:33:04.737Z,20.66
2023-06-04T16:36:08.071Z,20.58
2023-06-04T16:39:11.792Z,20.52
2023-06-04T16:42:14.764Z,20.44
2023-06-04T16:45:17.610Z,20.34
2023-06-04T16:48:20.448Z,20.26
2023-06-04T16:51:22.996Z,20.15
2023-06-04T16:54:25.870Z,20.10
2023-06-04T16:57:28.376Z,20.05
2023-06-04T17:00:32.564Z,20.02
2023-06-04T17:03:35.167Z,19.95
2023-06-04T17:06:39.146Z,19.95
2023-06-04T17:09:41.961Z,19.92
2023-06-04T17:12:45.316Z,19.93
2023-06-04T17:15:48.014Z,19.97
2023-06-04T17:18:51.069Z,20.03
2023-06-04T17:21:54.440Z,20.07
2023-06-04T17:24:57.389Z,20.04
2023-06-04T17:28:00.158Z,20.00
2023-06-04T17:31:03.888Z,19.98
2023-06-04T17:34:06.535Z,19.89
2023-06-04T17:37:15.548Z,19.79
2023-06-04T17:40:19.099Z,19.79
2023-06-04T17:43:22.223Z,19.74
2023-06-04T17:46:25.036Z,19.70
2023-06-04T17:49:27.950Z,19.66
2023-06-04T17:52:32.719Z,19.60
2023-06-04T17:55:35.732Z,19.60
2023-06-04T17:58:38.871Z,19.55
2023-06-04T18:01:45.000Z,19.54
2023-06-04T18:04:53.709Z,19.50
2023-06-04T18:07:56.528Z,19.47
2023-06-04T18:10:59.909Z,19.44
2023-06-04T18:14:06.108Z,19.45
2023-06-04T18:17:09.152Z,19.42
2023-06-04T18:20:12.256Z,19.37
2023-06-04T18:23:15.411Z,19.33
2023-06-04T18:26:18.513Z,19.34
2023-06-04T18:29:21.577Z,19.30
2023-06-04T18:32:24.352Z,19.28
2023-06-04T18:35:27.318Z,19.23
2023-06-04T18:38:30.056Z,19.20
2023-06-04T18:41:33.040Z,19.16
2023-06-04T18:44:35.958Z,19.14
2023-06-04T18:47:38.886Z,19.07
2023-06-04T18:50:43.693Z,19.07
2023-06-04T18:53:46.982Z,19.02
2023-06-04T18:56:50.022Z,18.96
2023-06-04T18:59:56.280Z,18.82
2023-06-04T19:02:59.104Z,18.86
2023-06-04T19:06:02.367Z,18.87
2023-06-04T19:09:05.446Z,18.86
2023-06-04T19:12:09.057Z,18.86
2023-06-04T19:15:11.939Z,18.86
2023-06-04T19:18:14.809Z,18.83
2023-06-04T19:21:17.751Z,18.82
2023-06-04T19:24:22.049Z,18.77
2023-06-04T19:27:24.859Z,18.77
2023-06-04T19:30:27.989Z,18.75
2023-06-04T19:33:33.587Z,18.74
2023-06-04T19:36:36.483Z,18.72
2023-06-04T19:39:39.094Z,18.67
2023-06-04T19:42:41.974Z,18.65
2023-06-04T19:45:50.467Z,18.59
2023-06-04T19:48:53.385Z,18.62
2023-06-04T19:51:55.873Z,18.55
2023-06-04T19:54:58.827Z,18.56
2023-06-04T19:58:01.963Z,18.51
2023-06-04T20:01:05.281Z,18.48
2023-06-04T20:04:08.864Z,18.47
2023-06-04T20:07:11.495Z,18.44
2023-06-04T20:10:14.427Z,18.44
2023-06-04T20:13:17.202Z,18.40
2023-06-04T20:16:20.270Z,18.39
2023-06-04T20:19:22.789Z,18.39
2023-06-04T20:22:26.247Z,18.34
2023-06-04T20:25:28.774Z,18.31
2023-06-04T20:28:32.100Z,18.25
2023-06-04T20:31:34.909Z,18.23
2023-06-04T20:34:37.737Z,18.25
2023-06-04T20:37:40.594Z,18.23
2023-06-04T20:40:43.545Z,18.21
2023-06-04T20:43:51.359Z,18.15
2023-06-04T20:46:54.218Z,18.18
2023-06-04T20:49:56.723Z,18.13
2023-06-04T20:52:59.482Z,18.10
2023-06-04T20:56:02.069Z,18.12
2023-06-04T20:59:05.160Z,18.08
2023-06-04T21:02:08.119Z,18.06
2023-06-04T21:05:11.199Z,17.92
2023-06-04T21:08:13.774Z,17.98
2023-06-04T21:11:16.653Z,17.86
2023-06-04T21:14:19.271Z,17.98
2023-06-04T21:17:22.155Z,17.93
2023-06-04T21:20:24.819Z,17.90
2023-06-04T21:23:27.785Z,17.89
2023-06-04T21:26:30.383Z,17.87
2023-06-04T21:29:33.226Z,17.82
2023-06-04T21:32:35.914Z,17.83
2023-06-04T21:35:38.847Z,17.80
2023-06-04T21:38:41.494Z,17.78
2023-06-04T21:41:44.305Z,17.77
2023-06-04T21:44:47.002Z,17.77
2023-06-04T21:47:50.486Z,17.77
2023-06-04T21:50:53.055Z,17.79
2023-06-04T21:53:56.052Z,17.67
2023-06-04T21:56:58.651Z,17.74
2023-06-04T22:00:01.508Z,17.75
2023-06-04T22:03:04.210Z,17.70
2023-06-04T22:06:07.217Z,17.69
2023-06-04T22:09:09.734Z,17.66
2023-06-04T22:12:12.699Z,17.63
2023-06-04T22:15:15.319Z,17.52
2023-06-04T22:18:18.261Z,17.49
2023-06-04T22:21:21.389Z,17.48
2023-06-04T22:24:25.197Z,17.45
2023-06-04T22:27:27.923Z,17.36
2023-06-04T22:30:30.909Z,17.43
2023-06-04T22:33:33.560Z,17.40
2023-06-04T22:36:36.373Z,17.39
2023-06-04T22:39:39.046Z,17.33
2023-06-04T22:42:42.031Z,17.31
2023-06-04T22:45:44.547Z,17.25
2023-06-04T22:48:47.497Z,17.17
2023-06-04T22:51:50.113Z,17.08
2023-06-04T22:54:53.164Z,17.08
2023-06-04T22:57:55.900Z,16.98
2023-06-04T23:00:58.725Z,16.93
2023-06-04T23:04:01.382Z,16.86
2023-06-04T23:07:04.825Z,16.81
2023-06-04T23:10:08.070Z,16.73
2023-06-04T23:13:11.110Z,16.67
2023-06-04T23:16:13.687Z,16.69
2023-06-04T23:19:16.620Z,16.64
2023-06-04T23:22:19.140Z,16.62
2023-06-04T23:25:22.548Z,16.61
2023-06-04T23:28:25.048Z,16.64
2023-06-04T23:31:28.264Z,16.70
2023-06-04T23:34:31.063Z,16.75
2023-06-04T23:37:33.872Z,16.81
2023-06-04T23:40:36.544Z,16.82
2023-06-04T23:43:39.430Z,16.80
2023-06-04T23:46:42.000Z,16.80
2023-06-04T23:49:45.553Z,16.79
2023-06-04T23:52:48.020Z,16.75
2023-06-04T23:55:51.294Z,16.82
2023-06-04T23:58:53.793Z,16.85
